Date,TemperatureHighF,TemperatureAvgF,TemperatureLowF,DewpointHighF,DewpointAvgF,DewpointLowF,HumidityHigh,HumidityAvg,HumidityLow,PressureMaxIn,PressureMinIn,WindSpeedMaxMPH,WindSpeedAvgMPH,GustSpeedMaxMPH,PrecipitationSumIn
2013-9-1,92,80,75,78,75,73,96,86,55,29.97,29.90,7,0,11,0.02
2013-9-2,96,80,75,81,75,72,96,87,51,30.00,29.91,25,1,25,0.26
2013-9-3,92,81,74,78,75,73,95,83,60,29.99,29.90,12,1,12,0.00
2013-9-4,85,81,78,80,77,74,94,87,77,30.04,29.92,14,1,14,0.19
2013-9-5,80,80,79,77,76,76,91,90,88,30.02,29.96,3,0,3,0.00
2013-9-6,93,83,79,79,77,74,93,82,59,30.01,29.95,10,1,10,0.00
2013-9-7,87,78,72,78,74,68,94,88,72,29.96,29.88,22,2,22,0.84
2013-9-8,91,78,74,78,74,71,95,87,60,29.92,29.82,18,1,18,0.01
2013-9-9,88,81,75,77,74,72,94,80,65,29.97,29.87,24,2,24,0.40
2013-9-10,88,81,76,77,75,72,94,82,65,30.01,29.92,20,3,20,0.01
2013-9-11,82,79,74,76,74,71,93,86,79,30.03,29.93,17,2,17,0.66
2013-9-12,85,80,76,77,76,74,95,86,74,29.99,29.86,9,1,9,0.00
2013-9-13,95,82,75,78,75,70,96,79,47,29.88,29.77,13,1,13,0.00
2013-9-14,92,84,77,78,75,70,94,76,52,29.94,29.80,14,1,14,0.00
2013-9-15,87,80,76,78,76,71,92,87,74,30.03,29.89,19,1,19,0.64
2013-9-16,84,79,73,78,76,70,95,89,78,30.01,29.93,23,2,23,0.39
2013-9-17,81,79,74,76,75,72,95,88,79,30.00,29.88,15,3,15,0.14
2013-9-18,87,79,74,77,74,72,94,85,67,29.99,29.88,12,1,12,0.02
2013-9-19,87,79,74,77,74,72,96,85,68,29.98,29.89,12,3,16,0.45
2013-9-20,85,79,74,74,72,68,93,78,57,29.97,29.86,17,3,17,0.01
2013-9-21,89,80,74,76,73,71,92,79,62,29.89,29.74,12,1,14,0.02
2013-9-22,93,84,76,77,75,71,94,77,49,29.84,29.72,14,2,14,0.00
2013-9-23,89,80,77,79,76,75,94,88,69,29.95,29.83,10,1,12,0.34
2013-9-24,94,81,74,81,75,72,95,83,59,29.94,29.84,16,2,22,0.23
2013-9-25,90,80,75,80,75,72,92,84,61,29.89,29.77,13,2,16,0.00
2013-9-26,89,80,76,82,76,74,94,89,72,29.84,29.76,27,2,27,0.22
2013-9-27,87,80,74,76,73,68,96,82,54,29.89,29.79,12,3,13,0.00
2013-9-28,86,79,74,75,73,71,94,82,65,29.93,29.84,17,3,17,0.16
2013-9-29,88,78,73,74,72,68,95,82,57,29.94,29.85,10,1,10,0.00